Time;durP1;ratioP1;P1;durP2;ratioP2;P2;SDS_P1;SDS_P2;PMS_P1;PMS_P2;Temp;Humidity;BMP_temperature;BMP_pressure;BME280_temperature;BME280_humidity;BME280_pressure;Samples;Min_cycle;Max_cycle;Signal;HPM_P1;HPM_P2
2024/01/04 00:01:14;;;;;;;39.70;21.70;;;;;;;-1.77;84.12;98939.70;109164;1252;65322;-66
2024/01/04 00:03:41;;;;;;;34.90;20.50;;;;;;;-1.79;83.91;98940.66;109014;1253;138551;-65
2024/01/04 00:06:07;;;;;;;33.80;19.70;;;;;;;-1.81;83.89;98940.92;109084;1251;59200;-65
2024/01/04 00:08:34;;;;;;;37.00;21.60;;;;;;;-1.83;83.85;98939.30;109180;1252;61289;-65
2024/01/04 00:11:03;;;;;;;30.60;19.50;;;;;;;-1.83;84.07;98945.30;109002;1252;138829;-65
2024/01/04 00:13:30;;;;;;;37.60;21.00;;;;;;;-1.79;84.03;98953.39;109173;1252;65561;-65
2024/01/04 00:15:56;;;;;;;31.90;18.90;;;;;;;-1.77;84.10;98949.70;109007;1252;138846;-65
2024/01/04 00:18:23;;;;;;;29.10;18.40;;;;;;;-1.75;84.15;98946.52;107239;1253;61244;-65
2024/01/04 00:20:50;;;;;;;32.10;19.20;;;;;;;-1.71;84.00;98940.98;105344;1254;61369;-65
2024/01/04 00:23:16;;;;;;;30.80;19.10;;;;;;;-1.73;83.84;98938.33;105181;1254;138822;-66
2024/01/04 00:25:43;;;;;;;35.20;19.70;;;;;;;-1.76;83.70;98939.24;105191;1257;66290;-66
2024/01/04 00:28:10;;;;;;;34.40;19.60;;;;;;;-1.76;84.00;98942.00;105193;1254;137997;-67
2024/01/04 00:30:36;;;;;;;33.40;18.90;;;;;;;-1.76;83.93;98928.73;105314;1255;61312;-66
2024/01/04 00:33:03;;;;;;;39.20;20.70;;;;;;;-1.77;84.12;98932.67;105305;1254;61284;-65
2024/01/04 00:35:30;;;;;;;35.00;21.20;;;;;;;-1.77;84.11;98930.77;105207;1254;73753;-64
2024/01/04 00:37:57;;;;;;;36.50;21.10;;;;;;;-1.81;84.03;98935.40;105265;1256;66989;-64
2024/01/04 00:40:24;;;;;;;31.80;19.50;;;;;;;-1.83;84.14;98929.99;105146;1256;138926;-64
2024/01/04 00:42:51;;;;;;;29.70;19.60;;;;;;;-1.85;84.13;98926.98;105363;1256;61122;-66
2024/01/04 00:45:17;;;;;;;32.30;20.30;;;;;;;-1.87;84.05;98923.45;105278;1252;138529;-65
2024/01/04 00:47:44;;;;;;;28.50;18.40;;;;;;;-1.90;84.14;98919.70;105089;1256;72851;-65
2024/01/04 00:50:11;;;;;;;33.10;19.60;;;;;;;-1.95;83.94;98919.81;105129;1254;66542;-66
2024/01/04 00:52:37;;;;;;;35.40;19.70;;;;;;;-2.00;84.18;98928.38;109039;1252;138683;-65
2024/01/04 00:55:04;;;;;;;32.50;21.10;;;;;;;-2.00;84.16;98926.45;109111;1253;60241;-65
2024/01/04 00:57:31;;;;;;;34.90;19.80;;;;;;;-2.01;84.30;98924.21;109002;1252;138937;-65
2024/01/04 00:59:58;;;;;;;36.20;20.70;;;;;;;-2.03;84.18;98923.92;109136;1252;74704;-65
2024/01/04 01:02:24;;;;;;;32.80;20.30;;;;;;;-2.02;84.29;98923.14;108987;1254;63906;-66
2024/01/04 01:04:51;;;;;;;30.80;18.80;;;;;;;-1.98;84.38;98925.73;109011;1251;139561;-65
2024/01/04 01:07:18;;;;;;;31.80;19.60;;;;;;;-1.96;84.19;98927.50;109214;1253;59233;-65
2024/01/04 01:09:44;;;;;;;29.30;18.80;;;;;;;-1.96;84.12;98926.16;109011;1254;138757;-65
2024/01/04 01:12:11;;;;;;;31.90;19.50;;;;;;;-1.90;84.38;98922.60;109099;1254;73317;-66
2024/01/04 01:14:38;;;;;;;32.00;18.70;;;;;;;-1.87;84.20;98927.42;109169;1253;66627;-66
2024/01/04 01:17:04;;;;;;;31.30;18.80;;;;;;;-1.83;84.22;98925.35;108917;1252;139111;-64
2024/01/04 01:19:31;;;;;;;28.40;19.10;;;;;;;-1.80;84.16;98920.52;109124;1253;60258;-64
2024/01/04 01:21:58;;;;;;;32.60;19.90;;;;;;;-1.73;84.33;98919.75;109021;1253;138504;-65
2024/01/04 01:24:25;;;;;;;32.50;19.30;;;;;;;-1.70;84.24;98919.54;109140;1253;73750;-65
2024/01/04 01:26:51;;;;;;;31.20;19.10;;;;;;;-1.65;84.38;98920.09;109133;1256;66175;-64
2024/01/04 01:29:18;;;;;;;31.50;19.70;;;;;;;-1.61;84.24;98916.70;109035;1253;139159;-65
2024/01/04 01:31:44;;;;;;;33.20;19.70;;;;;;;-1.59;84.15;98916.08;109052;1252;58984;-65
2024/01/04 01:34:11;;;;;;;28.30;19.20;;;;;;;-1.61;83.92;98918.91;109063;1253;138705;-65
2024/01/04 01:36:41;;;;;;;33.60;21.10;;;;;;;-1.64;83.91;98917.93;109145;1252;73281;-66
2024/01/04 01:39:11;;;;;;;32.30;20.50;;;;;;;-1.63;83.98;98913.48;109043;1253;137900;-65
2024/01/04 01:41:37;;;;;;;36.60;21.20;;;;;;;-1.58;84.16;98920.23;109151;1253;73692;-59
2024/01/04 01:44:04;;;;;;;31.90;20.40;;;;;;;-1.56;84.11;98917.23;106974;1253;61237;-60
2024/01/04 01:46:30;;;;;;;35.20;20.70;;;;;;;-1.57;84.09;98917.73;105246;1256;138235;-59
2024/01/04 01:48:57;;;;;;;37.80;20.90;;;;;;;-1.58;84.05;98916.83;105413;1253;74342;-60
2024/01/04 01:51:24;;;;;;;32.30;20.20;;;;;;;-1.55;84.16;98916.90;105193;1256;138664;-60
2024/01/04 01:53:51;;;;;;;35.80;21.50;;;;;;;-1.53;84.07;98922.02;105234;1254;70515;-60
2024/01/04 01:56:17;;;;;;;34.80;20.00;;;;;;;-1.56;84.08;98921.02;105330;1253;61269;-59
2024/01/04 01:58:44;;;;;;;29.60;19.40;;;;;;;-1.62;83.81;98919.05;104924;1260;138853;-59
2024/01/04 02:01:11;;;;;;;30.50;18.70;;;;;;;-1.71;83.65;98921.24;105104;1257;75736;-59
2024/01/04 02:03:38;;;;;;;34.60;19.40;;;;;;;-1.74;84.11;98917.14;105136;1257;138657;-64
2024/01/04 02:06:04;;;;;;;29.50;18.70;;;;;;;-1.71;84.34;98911.91;105196;1255;73654;-65
2024/01/04 02:08:31;;;;;;;33.50;20.20;;;;;;;-1.68;84.43;98905.67;105231;1252;61246;-65
2024/01/04 02:10:58;;;;;;;32.10;19.90;;;;;;;-1.66;84.58;98904.08;105144;1257;138337;-66
2024/01/04 02:13:24;;;;;;;33.70;19.50;;;;;;;-1.64;84.57;98903.66;105295;1256;74074;-65
2024/01/04 02:15:51;;;;;;;30.00;19.50;;;;;;;-1.63;84.42;98903.68;105190;1256;140058;-65
2024/01/04 02:18:18;;;;;;;30.80;18.50;;;;;;;-1.68;84.22;98897.46;105249;1257;73797;-65
2024/01/04 02:20:45;;;;;;;27.70;17.90;;;;;;;-1.70;84.46;98896.48;105214;1256;61378;-65
2024/01/04 02:23:18;;;;;;;27.70;17.20;;;;;;;-1.73;84.47;98909.59;105058;1256;138426;-65
2024/01/04 02:25:44;;;;;;;27.70;17.10;;;;;;;-1.71;84.73;98911.08;105064;1257;74906;-64
2024/01/04 02:28:11;;;;;;;24.90;16.50;;;;;;;-1.67;84.62;98917.97;105154;1256;138583;-65
2024/01/04 02:30:38;;;;;;;26.50;16.40;;;;;;;-1.62;84.82;98914.56;105211;1256;71815;-64
2024/01/04 02:33:05;;;;;;;29.10;17.80;;;;;;;-1.59;84.77;98907.13;105167;1258;139129;-62
2024/01/04 02:35:31;;;;;;;28.00;16.70;;;;;;;-1.53;84.84;98907.36;105250;1253;61266;-64
2024/01/04 02:37:59;;;;;;;26.20;16.60;;;;;;;-1.49;84.75;98904.66;105210;1254;75243;-64
2024/01/04 02:40:28;;;;;;;25.80;15.20;;;;;;;-1.47;84.66;98894.92;108952;1251;139348;-65
2024/01/04 02:42:54;;;;;;;24.90;15.90;;;;;;;-1.44;84.56;98894.70;109121;1251;70642;-65
2024/01/04 02:45:21;;;;;;;28.20;16.40;;;;;;;-1.42;84.71;98890.33;109036;1251;138065;-65
2024/01/04 02:47:47;;;;;;;28.90;16.90;;;;;;;-1.40;84.58;98889.03;109159;1251;61096;-65
2024/01/04 02:50:14;;;;;;;29.10;16.90;;;;;;;-1.36;84.59;98888.66;109159;1251;73932;-65
2024/01/04 02:52:41;;;;;;;29.50;16.40;;;;;;;-1.32;84.67;98887.11;109035;1251;137858;-65
2024/01/04 02:55:08;;;;;;;24.50;15.70;;;;;;;-1.32;84.41;98892.45;109151;1253;73399;-65
2024/01/04 02:57:34;;;;;;;26.80;15.20;;;;;;;-1.31;84.35;98893.20;109017;1251;138601;-64
2024/01/04 03:00:01;;;;;;;27.90;16.70;;;;;;;-1.28;84.39;98892.77;109164;1251;59303;-65
2024/01/04 03:02:28;;;;;;;21.30;14.10;;;;;;;-1.27;84.29;98887.52;109099;1253;74491;-65
2024/01/04 03:04:54;;;;;;;24.00;14.70;;;;;;;-1.27;84.32;98885.43;109058;1251;139355;-58
2024/01/04 03:07:21;;;;;;;22.80;14.20;;;;;;;-1.26;84.34;98889.25;109153;1252;72721;-59
2024/01/04 03:09:48;;;;;;;21.50;13.50;;;;;;;-1.29;84.01;98886.70;109073;1251;139813;-59
2024/01/04 03:12:16;;;;;;;22.80;12.50;;;;;;;-1.30;84.06;98889.79;109131;1251;60290;-59
2024/01/04 03:14:42;;;;;;;19.80;13.40;;;;;;;-1.29;84.27;98886.37;109128;1253;75775;-65
2024/01/04 03:17:09;;;;;;;22.80;14.00;;;;;;;-1.31;83.81;98882.87;109010;1251;138552;-65
2024/01/04 03:19:36;;;;;;;19.90;13.40;;;;;;;-1.30;84.12;98879.47;109145;1254;71867;-65
2024/01/04 03:22:02;;;;;;;18.90;13.20;;;;;;;-1.32;83.82;98879.89;109029;1252;139016;-64
2024/01/04 03:24:31;;;;;;;21.30;13.60;;;;;;;-1.32;83.93;98879.39;109139;1251;63106;-64
2024/01/04 03:26:58;;;;;;;22.60;14.80;;;;;;;-1.30;84.10;98875.65;109162;1253;74596;-64
2024/01/04 03:29:24;;;;;;;23.30;13.60;;;;;;;-1.31;83.74;98877.34;109042;1253;138402;-64
2024/01/04 03:31:51;;;;;;;20.20;13.30;;;;;;;-1.36;83.81;98874.23;109166;1251;71558;-65
2024/01/04 03:34:18;;;;;;;19.60;13.00;;;;;;;-1.35;83.79;98875.78;109069;1253;138499;-64
2024/01/04 03:36:44;;;;;;;18.40;13.10;;;;;;;-1.35;83.91;98870.12;109148;1252;60071;-65
2024/01/04 03:39:11;;;;;;;20.80;13.60;;;;;;;-1.35;83.81;98867.17;109092;1251;139737;-63
2024/01/04 03:41:37;;;;;;;25.00;15.00;;;;;;;-1.33;83.98;98867.31;109172;1252;65035;-64
2024/01/04 03:44:04;;;;;;;24.90;15.40;;;;;;;-1.29;83.97;98864.16;109147;1251;72977;-64
2024/01/04 03:46:31;;;;;;;19.60;12.70;;;;;;;-1.27;83.84;98865.96;109091;1253;137702;-65
2024/01/04 03:48:58;;;;;;;20.90;14.10;;;;;;;-1.30;83.64;98869.13;109170;1252;60369;-58
2024/01/04 03:51:24;;;;;;;25.20;13.90;;;;;;;-1.31;83.77;98868.56;105350;1252;137814;-58
2024/01/04 03:53:51;;;;;;;22.20;15.30;;;;;;;-1.32;83.98;98862.85;105421;1256;65634;-58
2024/01/04 03:56:18;;;;;;;24.20;15.00;;;;;;;-1.30;83.84;98863.27;105319;1251;73294;-58
2024/01/04 03:58:44;;;;;;;22.20;14.50;;;;;;;-1.29;84.05;98866.78;105194;1255;139134;-58
2024/01/04 04:01:11;;;;;;;24.00;15.70;;;;;;;-1.29;83.97;98867.63;105050;1257;60383;-58
2024/01/04 04:03:38;;;;;;;22.70;14.70;;;;;;;-1.27;84.17;98861.84;105193;1254;139466;-65
2024/01/04 04:06:08;;;;;;;24.30;15.00;;;;;;;-1.26;84.08;98860.86;105258;1252;65867;-66
2024/01/04 04:08:35;;;;;;;22.40;14.70;;;;;;;-1.28;84.03;98858.37;109130;1251;75908;-64
2024/01/04 04:11:01;;;;;;;24.60;14.70;;;;;;;-1.28;84.00;98858.04;109001;1253;139135;-64
2024/01/04 04:13:30;;;;;;;22.20;15.00;;;;;;;-1.30;83.93;98859.66;109172;1267;59472;-64
2024/01/04 04:15:57;;;;;;;25.20;14.50;;;;;;;-1.32;83.94;98860.98;109040;1252;139248;-64
2024/01/04 04:18:23;;;;;;;22.10;14.20;;;;;;;-1.31;83.78;98861.67;109144;1252;67243;-64
2024/01/04 04:20:50;;;;;;;19.50;12.60;;;;;;;-1.32;83.81;98863.69;105398;1257;72399;-64
2024/01/04 04:23:17;;;;;;;21.00;13.70;;;;;;;-1.30;83.97;98869.64;105144;1253;138497;-65
2024/01/04 04:25:43;;;;;;;19.10;12.80;;;;;;;-1.27;83.95;98868.91;105335;1254;61341;-59
2024/01/04 04:28:12;;;;;;;23.00;13.70;;;;;;;-1.24;84.12;98867.00;105205;1256;138382;-65
2024/01/04 04:30:39;;;;;;;23.50;14.60;;;;;;;-1.22;83.91;98870.31;108809;1253;67101;-59
2024/01/04 04:33:05;;;;;;;21.30;14.10;;;;;;;-1.22;83.82;98869.13;105127;1255;138098;-63
2024/01/04 04:35:32;;;;;;;22.60;14.10;;;;;;;-1.28;83.46;98870.09;105170;1252;61345;-58
2024/01/04 04:38:00;;;;;;;22.50;14.80;;;;;;;-1.34;83.49;98873.94;105270;1253;61308;-58
2024/01/04 04:40:26;;;;;;;26.10;14.80;;;;;;;-1.38;83.67;98873.11;105075;1252;137643;-59
2024/01/04 04:42:53;;;;;;;24.20;15.20;;;;;;;-1.37;83.81;98871.41;105195;1254;65466;-60
2024/01/04 04:45:20;;;;;;;26.40;15.70;;;;;;;-1.34;83.75;98874.13;105204;1256;138709;-60
2024/01/04 04:47:46;;;;;;;25.40;16.00;;;;;;;-1.39;83.58;98873.96;105287;1252;61896;-61
2024/01/04 04:50:13;;;;;;;25.10;15.50;;;;;;;-1.41;83.70;98873.67;105220;1253;61346;-58
2024/01/04 04:52:40;;;;;;;27.50;16.30;;;;;;;-1.44;83.69;98875.23;105116;1253;139113;-59
2024/01/04 04:55:07;;;;;;;28.40;17.30;;;;;;;-1.49;83.61;98872.64;105387;1255;64944;-60
2024/01/04 04:57:33;;;;;;;27.20;17.10;;;;;;;-1.53;83.61;98869.71;105241;1253;139277;-60
2024/01/04 05:00:03;;;;;;;29.20;16.60;;;;;;;-1.55;83.63;98869.63;105247;1253;61289;-59
2024/01/04 05:02:29;;;;;;;25.80;16.10;;;;;;;-1.53;83.97;98873.86;109093;1253;60875;-60
2024/01/04 05:04:56;;;;;;;24.00;15.70;;;;;;;-1.48;83.91;98871.84;109071;1253;138550;-60
2024/01/04 05:07:23;;;;;;;25.30;16.20;;;;;;;-1.44;84.09;98868.39;109130;1251;65529;-60
2024/01/04 05:09:49;;;;;;;28.10;16.50;;;;;;;-1.44;83.97;98869.05;109014;1253;138872;-60
2024/01/04 05:12:16;;;;;;;30.50;16.90;;;;;;;-1.43;83.87;98870.29;109116;1253;59139;-59
2024/01/04 05:14:42;;;;;;;30.90;17.90;;;;;;;-1.41;83.91;98871.59;107644;1256;60039;-59
2024/01/04 05:17:09;;;;;;;36.00;19.20;;;;;;;-1.43;83.66;98877.73;105069;1253;139450;-60
2024/01/04 05:19:36;;;;;;;31.40;19.70;;;;;;;-1.39;83.75;98878.21;105446;1254;66708;-59
2024/01/04 05:22:03;;;;;;;33.60;19.60;;;;;;;-1.38;83.84;98878.46;108860;1253;138722;-60
2024/01/04 05:24:30;;;;;;;30.80;19.30;;;;;;;-1.35;83.74;98877.35;109166;1253;60065;-59
2024/01/04 05:26:56;;;;;;;26.90;16.50;;;;;;;-1.33;83.81;98873.48;109163;1253;59295;-59
2024/01/04 05:29:25;;;;;;;24.30;14.90;;;;;;;-1.34;83.65;98876.90;109051;1252;137810;-59
2024/01/04 05:31:52;;;;;;;22.50;14.80;;;;;;;-1.37;83.55;98880.54;106108;1254;65431;-60
2024/01/04 05:34:18;;;;;;;24.30;15.30;;;;;;;-1.38;83.41;98880.66;105319;1253;138236;-65
2024/01/04 05:36:46;;;;;;;24.80;16.20;;;;;;;-1.40;83.50;98884.39;105295;1255;61298;-58
2024/01/04 05:39:13;;;;;;;23.00;15.30;;;;;;;-1.43;83.60;98887.16;105073;1256;138960;-59
2024/01/04 05:41:40;;;;;;;23.30;15.70;;;;;;;-1.42;83.54;98876.71;105482;1253;74659;-58
2024/01/04 05:44:06;;;;;;;26.00;15.80;;;;;;;-1.42;83.80;98871.38;105400;1254;65623;-59
2024/01/04 05:46:33;;;;;;;27.10;16.70;;;;;;;-1.43;83.76;98875.14;105162;1253;139119;-59
2024/01/04 05:49:00;;;;;;;29.10;16.20;;;;;;;-1.41;83.92;98881.94;105318;1253;62486;-59
2024/01/04 05:51:27;;;;;;;24.30;15.10;;;;;;;-1.39;84.02;98884.60;108954;1252;138730;-59
2024/01/04 05:53:54;;;;;;;25.70;16.40;;;;;;;-1.39;83.98;98885.81;105835;1253;74430;-59
2024/01/04 05:56:20;;;;;;;24.80;16.30;;;;;;;-1.41;83.86;98881.58;105289;1256;66038;-62
2024/01/04 05:58:47;;;;;;;25.70;16.20;;;;;;;-1.43;83.80;98882.34;105197;1254;138974;-59
2024/01/04 06:01:14;;;;;;;23.70;16.10;;;;;;;-1.46;83.99;98886.55;105314;1256;61349;-64
2024/01/04 06:03:41;;;;;;;27.20;16.30;;;;;;;-1.45;83.96;98884.17;105072;1253;138828;-65
2024/01/04 06:06:10;;;;;;;23.40;14.70;;;;;;;-1.41;84.05;98892.10;105278;1253;75955;-65
2024/01/04 06:08:36;;;;;;;20.70;13.40;;;;;;;-1.35;84.15;98895.41;105419;1254;67341;-64
2024/01/04 06:11:06;;;;;;;21.80;13.40;;;;;;;-1.31;84.04;98901.27;105160;1252;139121;-64
2024/01/04 06:13:32;;;;;;;20.60;13.80;;;;;;;-1.32;83.82;98902.75;105359;1253;61264;-63
2024/01/04 06:16:04;;;;;;;24.90;14.60;;;;;;;-1.30;84.01;98898.21;108980;1254;138405;-64
2024/01/04 06:18:31;;;;;;;21.10;13.80;;;;;;;-1.27;83.97;98901.95;107449;1256;75016;-63
2024/01/04 06:20:57;;;;;;;26.10;19.10;;;;;;;-1.23;84.05;98898.52;105064;1256;65404;-64
2024/01/04 06:23:25;;;;;;;23.90;15.60;;;;;;;-1.18;84.09;98897.15;104918;1252;138324;-67
2024/01/04 06:25:51;;;;;;;25.20;14.50;;;;;;;-1.20;83.89;98895.55;105142;1253;61489;-68
2024/01/04 06:28:18;;;;;;;22.70;15.10;;;;;;;-1.33;83.55;98893.77;105130;1253;139565;-67
2024/01/04 06:30:45;;;;;;;23.40;14.40;;;;;;;-1.38;83.65;98897.18;105209;1258;74968;-67
2024/01/04 06:33:11;;;;;;;26.70;21.70;;;;;;;-1.44;83.60;98901.42;105068;1256;139527;-65
2024/01/04 06:35:38;;;;;;;25.50;17.50;;;;;;;-1.52;83.51;98898.30;104992;1256;72404;-67
2024/01/04 06:38:08;;;;;;;21.30;13.80;;;;;;;-1.56;83.70;98902.45;105228;1256;61259;-67
2024/01/04 06:40:35;;;;;;;22.70;15.10;;;;;;;-1.56;83.78;98902.62;105356;1251;138721;-67
2024/01/04 06:43:03;;;;;;;35.20;26.10;;;;;;;-1.59;83.80;98908.48;105483;1256;74471;-68
2024/01/04 06:45:30;;;;;;;37.20;29.40;;;;;;;-1.61;83.79;98914.44;105384;1256;139497;-67
2024/01/04 06:47:56;;;;;;;68.10;54.70;;;;;;;-1.64;83.78;98919.14;105240;1254;72861;-68
2024/01/04 06:50:23;;;;;;;38.90;27.50;;;;;;;-1.63;83.87;98916.41;105325;1256;61232;-69
2024/01/04 06:52:50;;;;;;;115.60;73.30;;;;;;;-1.64;83.74;98916.88;105074;1252;138939;-67
2024/01/04 06:55:18;;;;;;;28.90;20.00;;;;;;;-1.64;83.90;98918.77;105496;1256;74097;-67
2024/01/04 06:57:45;;;;;;;28.30;19.30;;;;;;;-1.69;83.80;98920.29;109190;1254;138853;-66
2024/01/04 07:00:12;;;;;;;29.20;18.00;;;;;;;-1.69;83.77;98917.17;109113;1253;72634;-68
2024/01/04 07:02:38;;;;;;;81.20;52.60;;;;;;;-1.69;83.92;98918.76;109322;1252;58897;-67
2024/01/04 07:05:06;;;;;;;82.20;51.40;;;;;;;-1.72;83.77;98918.58;109285;1252;139325;-68
2024/01/04 07:07:33;;;;;;;36.90;25.80;;;;;;;-1.73;83.73;98919.05;109353;1253;72870;-67
2024/01/04 07:10:00;;;;;;;35.80;25.60;;;;;;;-1.70;83.87;98915.08;109306;1253;138837;-66
2024/01/04 07:12:27;;;;;;;39.60;27.20;;;;;;;-1.68;83.85;98905.20;109407;1252;71513;-67
2024/01/04 07:14:53;;;;;;;28.40;19.90;;;;;;;-1.65;83.92;98908.93;109361;1252;59058;-66
2024/01/04 07:17:21;;;;;;;25.40;16.60;;;;;;;-1.59;83.98;98907.66;109286;1251;137841;-66
2024/01/04 07:19:48;;;;;;;30.10;18.80;;;;;;;-1.59;83.92;98908.53;109402;1256;73693;-67
2024/01/04 07:22:19;;;;;;;29.20;17.80;;;;;;;-1.58;83.78;98914.23;109304;1253;137823;-66
2024/01/04 07:24:46;;;;;;;33.80;19.60;;;;;;;-1.58;83.75;98910.81;109281;1253;72095;-67
2024/01/04 07:27:12;;;;;;;28.00;16.40;;;;;;;-1.59;83.67;98908.85;109306;1252;138585;-58
2024/01/04 07:29:39;;;;;;;27.30;15.50;;;;;;;-1.53;83.84;98913.39;109386;1253;60140;-58
2024/01/04 07:32:06;;;;;;;27.40;17.50;;;;;;;-1.50;83.72;98921.09;109405;1253;75147;-58
2024/01/04 07:34:33;;;;;;;27.40;16.30;;;;;;;-1.46;83.75;98923.52;109195;1253;138773;-58
2024/01/04 07:37:00;;;;;;;21.90;15.40;;;;;;;-1.45;83.85;98920.48;109393;1252;72536;-58
2024/01/04 07:39:27;;;;;;;31.00;19.70;;;;;;;-1.35;84.05;98922.05;106756;1251;138547;-57
2024/01/04 07:41:53;;;;;;;22.20;15.60;;;;;;;-1.29;83.89;98922.20;105580;1256;61244;-58
2024/01/04 07:44:20;;;;;;;29.30;16.10;;;;;;;-1.22;84.13;98922.62;105457;1256;73750;-58
2024/01/04 07:46:47;;;;;;;26.10;16.30;;;;;;;-1.21;84.00;98925.95;105249;1257;138642;-58
2024/01/04 07:49:14;;;;;;;25.30;16.50;;;;;;;-1.20;84.00;98925.31;105423;1253;73880;-59
2024/01/04 07:51:41;;;;;;;28.90;18.20;;;;;;;-1.15;84.25;98927.41;105385;1256;140909;-58
2024/01/04 07:54:08;;;;;;;26.10;15.20;;;;;;;-1.10;84.25;98933.11;105597;1253;61155;-57
2024/01/04 07:56:34;;;;;;;25.90;15.70;;;;;;;-1.11;84.03;98928.11;105343;1253;75081;-58
2024/01/04 07:59:02;;;;;;;23.70;15.10;;;;;;;-1.14;83.81;98926.59;105406;1255;138070;-58
2024/01/04 08:01:29;;;;;;;26.80;16.20;;;;;;;-1.14;83.86;98924.71;106920;1253;73364;-59
2024/01/04 08:03:55;;;;;;;23.80;15.40;;;;;;;-1.16;83.90;98927.54;105429;1253;137952;-58
2024/01/04 08:06:22;;;;;;;26.70;16.90;;;;;;;-1.16;83.78;98928.06;105451;1256;61264;-58
2024/01/04 08:08:50;;;;;;;19.90;15.30;;;;;;;-1.18;83.70;98929.87;105397;1253;74956;-58
2024/01/04 08:11:17;;;;;;;25.30;14.90;;;;;;;-1.24;83.83;98922.58;105322;1256;138948;-58
2024/01/04 08:13:43;;;;;;;24.10;15.50;;;;;;;-1.27;83.79;98929.84;105420;1253;72488;-57
2024/01/04 08:16:10;;;;;;;23.60;15.80;;;;;;;-1.25;84.07;98927.35;105256;1252;139182;-58
2024/01/04 08:18:37;;;;;;;26.10;15.90;;;;;;;-1.21;84.25;98930.11;105375;1252;61194;-58
2024/01/04 08:21:04;;;;;;;26.60;16.70;;;;;;;-1.18;84.24;98929.54;105440;1256;72670;-57
2024/01/04 08:23:31;;;;;;;23.70;15.20;;;;;;;-1.19;84.17;98927.09;105646;1254;64730;-58
2024/01/04 08:25:57;;;;;;;27.90;17.60;;;;;;;-1.15;84.19;98927.41;105527;1254;73147;-58
2024/01/04 08:28:24;;;;;;;32.10;18.60;;;;;;;-1.10;84.24;98929.34;105497;1253;138608;-59
2024/01/04 08:30:51;;;;;;;28.90;17.90;;;;;;;-1.04;84.56;98929.07;109358;1252;59036;-57
2024/01/04 08:33:18;;;;;;;27.40;17.10;;;;;;;-0.98;84.39;98925.72;109242;1256;138570;-59
2024/01/04 08:35:44;;;;;;;23.10;15.70;;;;;;;-0.91;84.46;98927.21;109376;1253;64884;-59
2024/01/04 08:38:11;;;;;;;21.70;14.80;;;;;;;-0.91;84.21;98926.34;109419;1252;73712;-58
2024/01/04 08:40:38;;;;;;;19.20;14.20;;;;;;;-0.93;84.13;98923.81;109276;1252;138607;-58
2024/01/04 08:43:06;;;;;;;25.10;15.50;;;;;;;-0.96;83.89;98927.34;109356;1253;60293;-57
2024/01/04 08:45:33;;;;;;;20.70;14.70;;;;;;;-0.97;84.03;98927.98;109258;1252;138554;-58
2024/01/04 08:47:59;;;;;;;20.50;13.40;;;;;;;-0.94;84.23;98929.85;109389;1251;66517;-57
2024/01/04 08:50:26;;;;;;;23.80;14.60;;;;;;;-0.91;84.26;98934.61;105562;1256;72926;-57
2024/01/04 08:52:54;;;;;;;26.60;15.90;;;;;;;-0.88;83.94;98938.16;105454;1252;139102;-58
2024/01/04 08:55:21;;;;;;;24.00;15.50;;;;;;;-0.88;84.21;98936.97;105579;1253;61472;-58
2024/01/04 08:57:48;;;;;;;30.40;16.70;;;;;;;-0.87;84.15;98935.64;106154;1253;138248;-58
2024/01/04 09:00:15;;;;;;;25.40;16.60;;;;;;;-0.87;84.23;98932.70;105399;1258;66199;-57
2024/01/04 09:02:43;;;;;;;25.40;14.60;;;;;;;-0.82;84.41;98934.82;105522;1255;72323;-58
2024/01/04 09:05:10;;;;;;;29.20;16.50;;;;;;;-0.77;84.32;98934.31;109227;1252;138312;-58
2024/01/04 09:07:37;;;;;;;34.60;17.00;;;;;;;-0.75;84.34;98936.64;109424;1251;60178;-57
2024/01/04 09:10:05;;;;;;;25.20;14.80;;;;;;;-0.77;84.21;98936.39;109309;1252;138559;-58
2024/01/04 09:12:32;;;;;;;23.40;14.70;;;;;;;-0.75;84.13;98940.57;109384;1253;65999;-58
2024/01/04 09:14:59;;;;;;;22.70;13.60;;;;;;;-0.77;83.96;98947.73;109316;1253;73009;-58
2024/01/04 09:17:25;;;;;;;23.10;15.00;;;;;;;-0.87;83.68;98948.00;109286;1253;138757;-58
2024/01/04 09:19:52;;;;;;;26.60;15.00;;;;;;;-0.98;83.72;98953.95;107092;1253;61244;-58
2024/01/04 09:22:19;;;;;;;28.50;16.60;;;;;;;-1.02;83.74;98957.05;105237;1253;139086;-58
2024/01/04 09:24:46;;;;;;;23.30;14.40;;;;;;;-1.04;83.88;98958.67;105373;1254;65674;-58
2024/01/04 09:27:12;;;;;;;20.90;11.90;;;;;;;-1.04;84.12;98954.41;105440;1254;138758;-58
2024/01/04 09:29:39;;;;;;;21.40;13.60;;;;;;;-1.05;84.38;98953.66;105493;1256;61215;-58
2024/01/04 09:32:06;;;;;;;24.70;14.90;;;;;;;-1.06;84.31;98957.56;105499;1256;61375;-58
2024/01/04 09:34:32;;;;;;;20.30;12.50;;;;;;;-1.04;84.63;98961.09;105224;1253;138425;-58
2024/01/04 09:37:00;;;;;;;17.00;12.30;;;;;;;-1.04;84.54;98956.44;105418;1253;64916;-58
2024/01/04 09:39:27;;;;;;;18.10;12.30;;;;;;;-1.04;84.63;98956.82;105146;1253;177680;-58
2024/01/04 09:41:54;;;;;;;16.80;10.60;;;;;;;-0.97;84.77;98960.88;105396;1253;61211;-58
2024/01/04 09:44:21;;;;;;;14.80;9.30;;;;;;;-1.00;84.62;98964.89;105406;1259;61312;-58
2024/01/04 09:46:47;;;;;;;13.60;10.20;;;;;;;-1.04;84.28;98956.81;105256;1253;139221;-58
2024/01/04 09:49:14;;;;;;;15.10;10.30;;;;;;;-1.06;84.46;98947.40;105322;1256;67236;-59
2024/01/04 09:51:41;;;;;;;15.20;10.50;;;;;;;-1.03;84.55;98948.90;105208;1253;139135;-59
2024/01/04 09:54:09;;;;;;;15.80;11.30;;;;;;;-1.04;84.52;98956.27;109348;1252;59345;-58
2024/01/04 09:56:40;;;;;;;16.70;10.70;;;;;;;-1.09;84.57;98955.21;109345;1252;59484;-58
2024/01/04 09:59:08;;;;;;;19.30;13.30;;;;;;;-1.11;84.66;98954.06;109245;1252;138778;-58
2024/01/04 10:01:36;;;;;;;21.70;15.00;;;;;;;-1.13;84.60;98950.55;109317;1253;66589;-58
2024/01/04 10:04:07;;;;;;;19.40;13.30;;;;;;;-1.10;84.65;98956.04;109235;1252;138441;-58
2024/01/04 10:06:35;;;;;;;18.70;12.50;;;;;;;-1.05;84.74;98961.58;109298;1253;59956;-58
2024/01/04 10:09:24;;;;;;;18.90;11.90;;;;;;;-1.00;84.79;98965.05;109311;1252;59362;-59
2024/01/04 10:11:57;;;;;;;17.00;12.00;;;;;;;-1.00;84.49;98959.88;109386;1253;72944;-57
2024/01/04 10:14:24;;;;;;;21.40;13.90;;;;;;;-1.09;84.14;98946.77;109361;1252;63969;-58
2024/01/04 10:16:51;;;;;;;19.60;13.90;;;;;;;-1.14;84.60;98948.79;109241;1253;139678;-58
2024/01/04 10:19:18;;;;;;;19.00;13.70;;;;;;;-1.16;84.83;98944.08;109375;1253;58960;-58
2024/01/04 10:21:45;;;;;;;19.00;12.60;;;;;;;-1.18;84.55;98942.29;109208;1253;139205;-58
2024/01/04 10:24:14;;;;;;;20.80;13.40;;;;;;;-1.19;84.46;98949.79;108075;1254;73239;-58
2024/01/04 10:26:42;;;;;;;18.90;12.10;;;;;;;-1.20;84.49;98955.11;109386;1253;66846;-58
2024/01/04 10:29:08;;;;;;;17.90;13.00;;;;;;;-1.20;84.48;98953.04;106804;1253;138620;-58
2024/01/04 10:31:36;;;;;;;17.90;12.50;;;;;;;-1.16;84.61;98954.74;105412;1256;61244;-59
2024/01/04 10:34:02;;;;;;;18.90;13.30;;;;;;;-1.12;84.66;98958.34;105389;1254;138686;-59
2024/01/04 10:36:29;;;;;;;19.50;13.70;;;;;;;-1.09;84.50;98965.37;105469;1256;75249;-57
2024/01/04 10:39:00;;;;;;;19.20;12.40;;;;;;;-1.15;84.24;98962.70;105567;1254;67291;-59
2024/01/04 10:41:28;;;;;;;16.20;12.10;;;;;;;-1.27;83.92;98961.67;105291;1254;137713;-58
2024/01/04 10:44:07;;;;;;;18.60;13.10;;;;;;;-1.36;83.95;98966.61;105290;1253;61394;-58
2024/01/04 10:46:34;;;;;;;19.80;13.40;;;;;;;-1.47;83.98;98959.08;109124;1253;138227;-58
2024/01/04 10:49:02;;;;;;;23.70;14.50;;;;;;;-1.52;84.13;98959.20;106467;1254;73838;-58
2024/01/04 10:51:30;;;;;;;22.00;14.10;;;;;;;-1.59;84.03;98965.96;109246;1253;138945;-59
2024/01/04 10:54:00;;;;;;;21.10;14.20;;;;;;;-1.65;84.03;98972.77;109327;1253;72137;-59
2024/01/04 10:56:32;;;;;;;20.50;14.30;;;;;;;-1.66;84.19;98966.85;109359;1252;59099;-59
2024/01/04 10:58:59;;;;;;;21.90;13.80;;;;;;;-1.69;84.10;98966.88;109267;1253;138419;-59
2024/01/04 11:01:26;;;;;;;23.20;15.80;;;;;;;-1.71;84.27;98959.73;109377;1253;75734;-58
2024/01/04 11:03:53;;;;;;;29.80;19.00;;;;;;;-1.67;84.38;98958.05;106915;1253;138738;-58
2024/01/04 11:06:21;;;;;;;39.20;23.20;;;;;;;-1.61;84.35;98959.32;105417;1254;72513;-58